Paganini — V2CL8 — position and weather

sailwx.info

Track history (hours):
 
Tides and Currents Weather Stations Pressure Air Temp Water Temp Dewpoint Dewpoint Depression Visibility Wind Speed Wind Dir Waves Ship Positions

Paganini

Last reported at 2014-Jul-21 06:33 UTC. Time now 2014-Jul-23 07:52 UTC.
Position N 48°01' W 006°30'.

Length 90 m; draft 5.6 m.

Type: Ship. MMSI: 305040000.

Date/timePositionNaut miles runAvg speedWind from/ knotsBaromVisibWave heightAir tempDewpointWater temp
2014-Jul-21 06:33N 48°01' W 006°30'239 8.1
2014-Jul-20 01:13N 50°16' W 001°29'4 5.9
2014-Jul-20 00:33N 50°17' W 001°23'7 6.9
2014-Jul-19 23:32N 50°19' W 001°12'9 8.8
2014-Jul-19 22:30N 50°21' W 000°59'4010.1
2014-Jul-19 18:31N 50°32' E 000°02'10 9.1
2014-Jul-19 17:28N 50°35' E 000°17'8 8.4
2014-Jul-19 16:33N 50°37' E 000°28'8 7.8
2014-Jul-19 15:33N 50°41' E 000°39'8 7.7
2014-Jul-19 14:33N 50°45' E 000°49'8 8.3
2014-Jul-19 13:32N 50°50' E 000°60'11 9.5
2014-Jul-19 12:26N 50°57' E 001°13'1010.9
2014-Jul-19 11:33N 51°03' E 001°25'1110.8
2014-Jul-19 10:33N 51°10' E 001°37'9 9.0
2014-Jul-19 09:33N 51°16' E 001°47'8 8.1
2014-Jul-19 08:33N 51°24' E 001°53'7 7.1
2014-Jul-19 07:34N 51°30' E 001°59'7 7.1
2014-Jul-19 06:34N 51°35' E 002°06'7 7.4
2014-Jul-19 05:33N 51°40' E 002°15'9 7.6
2014-Jul-19 04:25N 51°47' E 002°24'7 8.4
2014-Jul-19 03:33N 51°52' E 002°32'10 9.6
2014-Jul-19 02:33N 51°58' E 002°44'9 9.4
2014-Jul-19 01:33N 52°02' E 002°59'10 9.6
2014-Jul-19 00:33N 52°03' E 003°14'9 9.0
2014-Jul-18 23:32N 52°03' E 003°29'8 8.5
2014-Jul-18 22:32N 52°04' E 003°43'8 8.3
2014-Jul-18 21:34N 52°03' E 003°56'1010.0
2014-Jul-18 20:33N 51°57' E 004°10'10 9.5
2014-Jul-18 19:33N 51°54' E 004°24'1 0.7
2014-Jul-18 18:32N 51°54' E 004°25'0 0.0
2014-Jul-18 17:32N 51°54' E 004°25'0 0.0
2014-Jul-18 16:32N 51°54' E 004°25'0 0.0
2014-Jul-18 15:32N 51°54' E 004°25'0 0.0
2014-Jul-18 14:32N 51°54' E 004°25'0 0.0
2014-Jul-18 13:32N 51°54' E 004°25'0 0.0
2014-Jul-18 12:32N 51°54' E 004°25'0 0.0
2014-Jul-18 11:32N 51°54' E 004°25'0 0.0
2014-Jul-18 10:32N 51°54' E 004°25'0 0.0
2014-Jul-18 09:32N 51°54' E 004°25'0 0.0
2014-Jul-18 08:32N 51°54' E 004°25'0 0.0
2014-Jul-18 07:32N 51°54' E 004°25'0 0.0
2014-Jul-18 06:32N 51°54' E 004°25'0 0.0
2014-Jul-18 05:32N 51°54' E 004°25'0 0.0
2014-Jul-18 04:32N 51°54' E 004°25'0 0.0
2014-Jul-18 03:32N 51°54' E 004°25'0 0.0
2014-Jul-18 02:32N 51°54' E 004°25'0 0.0
2014-Jul-18 01:32N 51°54' E 004°25'0 0.0
2014-Jul-18 00:32N 51°54' E 004°25'0 0.0
2014-Jul-17 23:29N 51°54' E 004°25'0 0.0
2014-Jul-17 22:32N 51°54' E 004°25'0 0.0
2014-Jul-17 21:32N 51°54' E 004°25'0 0.0
2014-Jul-17 20:32N 51°54' E 004°25'0 0.0
2014-Jul-17 19:32N 51°54' E 004°25'0 0.0
2014-Jul-17 18:34N 51°54' E 004°25'0 0.0
2014-Jul-17 17:34N 51°54' E 004°25'1 1.0
2014-Jul-17 16:33N 51°54' E 004°24'1 1.3
2014-Jul-17 15:33N 51°53' E 004°26'0 0.0
2014-Jul-17 14:33N 51°53' E 004°26'0 0.0
2014-Jul-17 13:30N 51°53' E 004°26'0 0.0
2014-Jul-17 12:33N 51°53' E 004°26'0 0.0
2014-Jul-17 11:33N 51°53' E 004°26'0 0.0
2014-Jul-17 10:33N 51°53' E 004°26'0 0.0
2014-Jul-17 09:33N 51°53' E 004°26'0 0.0
2014-Jul-17 08:33N 51°53' E 004°26'0 0.0
2014-Jul-17 07:33N 51°53' E 004°26'0 0.0
2014-Jul-17 06:33N 51°53' E 004°26'0 0.0
2014-Jul-17 05:30N 51°53' E 004°26'0 0.0
2014-Jul-17 04:33N 51°53' E 004°26'0 0.0
2014-Jul-17 03:30N 51°53' E 004°26'0 0.3
2014-Jul-17 02:33N 51°53' E 004°25'4 4.5
2014-Jul-17 01:33N 51°54' E 004°18'9 9.3
2014-Jul-17 00:33N 51°59' E 004°05'9 9.3
2014-Jul-16 23:33N 51°60' E 003°50'10 9.6
2014-Jul-16 22:33N 51°57' E 003°35'1110.2
2014-Jul-16 21:29N 51°54' E 003°18'1010.5
2014-Jul-16 20:33N 51°51' E 003°03'1110.7
2014-Jul-16 19:33N 51°48' E 002°47'1111.0
2014-Jul-16 18:33N 51°42' E 002°32'1212.3
2014-Jul-16 17:33N 51°32' E 002°20'1312.8
2014-Jul-16 16:34N 51°24' E 002°04'1010.4
2014-Jul-16 15:33N 51°24' E 001°47'14 7.0
2014-Jul-16 13:33N 51°25' E 001°25'0 0.0
2014-Jul-16 12:33N 51°25' E 001°25'0 0.0
2014-Jul-16 11:33N 51°25' E 001°25'0 0.0
2014-Jul-16 10:33N 51°25' E 001°25'0 0.0
2014-Jul-16 09:33N 51°25' E 001°25'0 0.1
2014-Jul-16 08:33N 51°25' E 001°25'0 0.0
2014-Jul-16 07:33N 51°25' E 001°25'0 0.0
2014-Jul-16 06:33N 51°25' E 001°25'0 0.0
2014-Jul-16 05:34N 51°25' E 001°25'0 0.0
2014-Jul-16 04:33N 51°25' E 001°25'0 0.1
2014-Jul-16 03:33N 51°25' E 001°25'0 0.1
2014-Jul-16 02:33N 51°25' E 001°25'0 0.0
2014-Jul-16 01:33N 51°25' E 001°25'0 0.0
2014-Jul-16 00:33N 51°25' E 001°25'0 0.1
2014-Jul-15 23:33N 51°25' E 001°25'0 0.0
2014-Jul-15 22:33N 51°25' E 001°25'0 0.0
2014-Jul-15 21:34N 51°25' E 001°25'0 0.1
2014-Jul-15 20:33N 51°25' E 001°25'0 0.1
2014-Jul-15 19:33N 51°25' E 001°25'9 9.0
2014-Jul-15 18:33N 51°29' E 001°11'1212.4
2014-Jul-15 17:33N 51°29' E 000°52'1312.8
2014-Jul-15 16:33N 51°30' E 000°31'9 9.0
2014-Jul-15 15:33N 51°27' E 000°17'8 8.0
2014-Jul-15 14:33N 51°31' E 000°06'0 0.3
2014-Jul-15 13:22N 51°31' E 000°06'0 0.0
2014-Jul-15 12:31N 51°31' E 000°06'0 0.0
2014-Jul-15 11:28N 51°31' E 000°06'0 0.0
2014-Jul-15 10:31N 51°31' E 000°06'0 0.0
2014-Jul-15 09:19N 51°31' E 000°06'0 0.0
2014-Jul-15 08:22N 51°31' E 000°06'0 0.0
2014-Jul-15 07:22N 51°31' E 000°06'0 0.0
2014-Jul-15 06:31N 51°31' E 000°06'0 0.0
2014-Jul-15 05:31N 51°31' E 000°06'0 0.0
2014-Jul-15 04:28N 51°31' E 000°06'0 0.0
2014-Jul-15 03:28N 51°31' E 000°06'0 0.0
2014-Jul-15 02:28N 51°31' E 000°06'0 0.0
2014-Jul-15 01:28N 51°31' E 000°06'0 0.0
2014-Jul-15 00:28N 51°31' E 000°06'0 0.0
2014-Jul-14 23:22N 51°31' E 000°06'0 0.0
2014-Jul-14 22:28N 51°31' E 000°06'0 0.0
2014-Jul-14 21:22N 51°31' E 000°06'0 0.0
2014-Jul-14 20:28N 51°31' E 000°06'0 0.0
2014-Jul-14 19:28N 51°31' E 000°06'0 0.0
2014-Jul-14 17:31N 51°31' E 000°06'0 0.0
2014-Jul-14 16:28N 51°31' E 000°06'0 0.0
2014-Jul-14 15:28N 51°31' E 000°06'0 0.0
2014-Jul-14 14:28N 51°31' E 000°06'0 0.0
2014-Jul-14 13:19N 51°31' E 000°06'0 0.0
2014-Jul-14 12:31N 51°31' E 000°06'0 0.0
2014-Jul-14 11:31N 51°31' E 000°06'0 0.0
2014-Jul-14 10:31N 51°31' E 000°06'0 0.0
2014-Jul-14 09:31N 51°31' E 000°06'0 0.0
2014-Jul-14 08:28N 51°31' E 000°06'0 0.0
2014-Jul-14 07:25N 51°31' E 000°06'0 0.0
2014-Jul-14 06:28N 51°31' E 000°06'0 0.0
2014-Jul-14 05:31N 51°31' E 000°06'0 0.0
2014-Jul-14 04:31N 51°31' E 000°06'0 0.0
2014-Jul-14 03:31N 51°31' E 000°06'0 0.0
2014-Jul-14 02:28N 51°31' E 000°06'0 0.0
2014-Jul-14 01:28N 51°31' E 000°06'0 0.0
2014-Jul-14 00:31N 51°31' E 000°06'0 0.0
2014-Jul-13 23:31N 51°31' E 000°06'0 0.0
2014-Jul-13 22:31N 51°31' E 000°06'0 0.0
2014-Jul-13 21:25N 51°31' E 000°06'0 0.0
2014-Jul-13 20:28N 51°31' E 000°06'0 0.0
2014-Jul-13 19:28N 51°31' E 000°06'0 0.0
2014-Jul-13 18:28N 51°31' E 000°06'0 0.0
2014-Jul-13 17:28N 51°31' E 000°06'0 0.0
2014-Jul-13 16:31N 51°31' E 000°06'0 0.0
2014-Jul-13 15:28N 51°31' E 000°06'0 0.0
2014-Jul-13 14:22N 51°31' E 000°06'0 0.0
2014-Jul-13 13:28N 51°31' E 000°06'0 0.0
2014-Jul-13 12:31N 51°31' E 000°06'0 0.0
2014-Jul-13 11:31N 51°31' E 000°06'0 0.0
2014-Jul-13 10:31N 51°31' E 000°06'0 0.0
2014-Jul-13 09:31N 51°31' E 000°06'0 0.0
2014-Jul-13 08:31N 51°31' E 000°06'0 0.0
2014-Jul-13 07:31N 51°31' E 000°06'0 0.0
2014-Jul-13 06:31N 51°31' E 000°06'0 0.0
2014-Jul-13 05:31N 51°31' E 000°06'0 0.0
2014-Jul-13 04:28N 51°31' E 000°06'0 0.0
2014-Jul-13 03:28N 51°31' E 000°06'0 0.0
2014-Jul-13 02:31N 51°31' E 000°06'0 0.1
2014-Jul-13 01:33N 51°31' E 000°06'4 4.0
2014-Jul-13 00:33N 51°29' E 000°11'8 8.1
2014-Jul-12 23:33N 51°27' E 000°24'7 6.7
2014-Jul-12 22:33N 51°30' E 000°33'1010.4
2014-Jul-12 21:33N 51°30' E 000°50'5 5.1
2014-Jul-12 20:33N 51°30' E 000°58'0 0.1
2014-Jul-12 19:33N 51°30' E 000°58'0 0.1
2014-Jul-12 18:33N 51°30' E 000°58'0 0.0
2014-Jul-12 17:30N 51°30' E 000°58'1 1.6
2014-Jul-12 16:33N 51°30' E 000°56'6 5.8
2014-Jul-12 15:33N 51°33' E 001°04'8 8.2
2014-Jul-12 14:33N 51°38' E 001°14'7 6.6
2014-Jul-12 13:33N 51°40' E 001°04'1010.3
2014-Jul-12 12:33N 51°37' E 000°48'0 0.5
2014-Jul-12 11:33N 51°37' E 000°48'0 0.0
2014-Jul-12 10:33N 51°37' E 000°48'0 0.0
2014-Jul-12 09:33N 51°37' E 000°48'0 0.0
2014-Jul-12 08:33N 51°37' E 000°48'0 0.0
2014-Jul-12 07:30N 51°37' E 000°48'0 0.0
2014-Jul-12 06:33N 51°37' E 000°48'0 0.0
2014-Jul-12 05:34N 51°37' E 000°48'0 0.0
2014-Jul-12 04:34N 51°37' E 000°48'0 0.0
2014-Jul-12 03:33N 51°37' E 000°48'0 0.0
2014-Jul-12 02:33N 51°37' E 000°48'0 0.0
2014-Jul-12 01:33N 51°37' E 000°48'0 0.0
2014-Jul-12 00:33N 51°37' E 000°48'0 0.0
2014-Jul-11 23:33N 51°37' E 000°48'0 0.0
2014-Jul-11 22:33N 51°37' E 000°48'0 0.0
2014-Jul-11 21:33N 51°37' E 000°48'0 0.0
2014-Jul-11 20:33N 51°37' E 000°48'0 0.0
2014-Jul-11 19:33N 51°37' E 000°48'0 0.0
2014-Jul-11 18:33N 51°37' E 000°48'0 0.0
2014-Jul-11 17:33N 51°37' E 000°48'0 0.0
2014-Jul-11 16:33N 51°37' E 000°48'0 0.0
2014-Jul-11 15:33N 51°37' E 000°48'0 0.0
2014-Jul-11 14:33N 51°37' E 000°48'0 0.0
2014-Jul-11 13:33N 51°37' E 000°48'0 0.0
2014-Jul-11 12:33N 51°37' E 000°48'0 0.0
2014-Jul-11 11:33N 51°37' E 000°48'0 0.0
2014-Jul-11 10:33N 51°37' E 000°48'0 0.0
2014-Jul-11 09:33N 51°37' E 000°48'0 0.0
2014-Jul-11 08:33N 51°37' E 000°48'0 0.0
2014-Jul-11 07:33N 51°37' E 000°48'0 0.0
2014-Jul-11 06:33N 51°37' E 000°48'  
Track history (hours):
 
Tides and Currents Weather Stations Pressure Air Temp Water Temp Dewpoint Dewpoint Depression Visibility Wind Speed Wind Dir Waves Ship Positions

Paganini

Last reported at 2014-Jul-21 06:33 UTC. Time now 2014-Jul-23 07:52 UTC.
Position N 48°01' W 006°30'.

Length 90 m; draft 5.6 m.

Type: Ship. MMSI: 305040000.

Date/timePositionNaut miles runAvg speedWind from/ knotsBaromVisibWave heightAir tempDewpointWater temp
2014-Jul-21 06:33N 48°01' W 006°30'239 8.1
2014-Jul-20 01:13N 50°16' W 001°29'4 5.9
2014-Jul-20 00:33N 50°17' W 001°23'7 6.9
2014-Jul-19 23:32N 50°19' W 001°12'9 8.8
2014-Jul-19 22:30N 50°21' W 000°59'4010.1
2014-Jul-19 18:31N 50°32' E 000°02'10 9.1
2014-Jul-19 17:28N 50°35' E 000°17'8 8.4
2014-Jul-19 16:33N 50°37' E 000°28'8 7.8
2014-Jul-19 15:33N 50°41' E 000°39'8 7.7
2014-Jul-19 14:33N 50°45' E 000°49'8 8.3
2014-Jul-19 13:32N 50°50' E 000°60'11 9.5
2014-Jul-19 12:26N 50°57' E 001°13'1010.9
2014-Jul-19 11:33N 51°03' E 001°25'1110.8
2014-Jul-19 10:33N 51°10' E 001°37'9 9.0
2014-Jul-19 09:33N 51°16' E 001°47'8 8.1
2014-Jul-19 08:33N 51°24' E 001°53'7 7.1
2014-Jul-19 07:34N 51°30' E 001°59'7 7.1
2014-Jul-19 06:34N 51°35' E 002°06'7 7.4
2014-Jul-19 05:33N 51°40' E 002°15'9 7.6
2014-Jul-19 04:25N 51°47' E 002°24'7 8.4
2014-Jul-19 03:33N 51°52' E 002°32'10 9.6
2014-Jul-19 02:33N 51°58' E 002°44'9 9.4
2014-Jul-19 01:33N 52°02' E 002°59'10 9.6
2014-Jul-19 00:33N 52°03' E 003°14'9 9.0
2014-Jul-18 23:32N 52°03' E 003°29'8 8.5
2014-Jul-18 22:32N 52°04' E 003°43'8 8.3
2014-Jul-18 21:34N 52°03' E 003°56'1010.0
2014-Jul-18 20:33N 51°57' E 004°10'10 9.5
2014-Jul-18 19:33N 51°54' E 004°24'1 0.7
2014-Jul-18 18:32N 51°54' E 004°25'0 0.0
2014-Jul-18 17:32N 51°54' E 004°25'0 0.0
2014-Jul-18 16:32N 51°54' E 004°25'0 0.0
2014-Jul-18 15:32N 51°54' E 004°25'0 0.0
2014-Jul-18 14:32N 51°54' E 004°25'0 0.0
2014-Jul-18 13:32N 51°54' E 004°25'0 0.0
2014-Jul-18 12:32N 51°54' E 004°25'0 0.0
2014-Jul-18 11:32N 51°54' E 004°25'0 0.0
2014-Jul-18 10:32N 51°54' E 004°25'0 0.0
2014-Jul-18 09:32N 51°54' E 004°25'0 0.0
2014-Jul-18 08:32N 51°54' E 004°25'0 0.0
2014-Jul-18 07:32N 51°54' E 004°25'0 0.0
2014-Jul-18 06:32N 51°54' E 004°25'0 0.0
2014-Jul-18 05:32N 51°54' E 004°25'0 0.0
2014-Jul-18 04:32N 51°54' E 004°25'0 0.0
2014-Jul-18 03:32N 51°54' E 004°25'0 0.0
2014-Jul-18 02:32N 51°54' E 004°25'0 0.0
2014-Jul-18 01:32N 51°54' E 004°25'0 0.0
2014-Jul-18 00:32N 51°54' E 004°25'0 0.0
2014-Jul-17 23:29N 51°54' E 004°25'0 0.0
2014-Jul-17 22:32N 51°54' E 004°25'0 0.0
2014-Jul-17 21:32N 51°54' E 004°25'0 0.0
2014-Jul-17 20:32N 51°54' E 004°25'0 0.0
2014-Jul-17 19:32N 51°54' E 004°25'0 0.0
2014-Jul-17 18:34N 51°54' E 004°25'0 0.0
2014-Jul-17 17:34N 51°54' E 004°25'1 1.0
2014-Jul-17 16:33N 51°54' E 004°24'1 1.3
2014-Jul-17 15:33N 51°53' E 004°26'0 0.0
2014-Jul-17 14:33N 51°53' E 004°26'0 0.0
2014-Jul-17 13:30N 51°53' E 004°26'0 0.0
2014-Jul-17 12:33N 51°53' E 004°26'0 0.0
2014-Jul-17 11:33N 51°53' E 004°26'0 0.0
2014-Jul-17 10:33N 51°53' E 004°26'0 0.0
2014-Jul-17 09:33N 51°53' E 004°26'0 0.0
2014-Jul-17 08:33N 51°53' E 004°26'0 0.0
2014-Jul-17 07:33N 51°53' E 004°26'0 0.0
2014-Jul-17 06:33N 51°53' E 004°26'0 0.0
2014-Jul-17 05:30N 51°53' E 004°26'0 0.0
2014-Jul-17 04:33N 51°53' E 004°26'0 0.0
2014-Jul-17 03:30N 51°53' E 004°26'0 0.3
2014-Jul-17 02:33N 51°53' E 004°25'4 4.5
2014-Jul-17 01:33N 51°54' E 004°18'9 9.3
2014-Jul-17 00:33N 51°59' E 004°05'9 9.3
2014-Jul-16 23:33N 51°60' E 003°50'10 9.6
2014-Jul-16 22:33N 51°57' E 003°35'1110.2
2014-Jul-16 21:29N 51°54' E 003°18'1010.5
2014-Jul-16 20:33N 51°51' E 003°03'1110.7
2014-Jul-16 19:33N 51°48' E 002°47'1111.0
2014-Jul-16 18:33N 51°42' E 002°32'1212.3
2014-Jul-16 17:33N 51°32' E 002°20'1312.8
2014-Jul-16 16:34N 51°24' E 002°04'1010.4
2014-Jul-16 15:33N 51°24' E 001°47'14 7.0
2014-Jul-16 13:33N 51°25' E 001°25'0 0.0
2014-Jul-16 12:33N 51°25' E 001°25'0 0.0
2014-Jul-16 11:33N 51°25' E 001°25'0 0.0
2014-Jul-16 10:33N 51°25' E 001°25'0 0.0
2014-Jul-16 09:33N 51°25' E 001°25'0 0.1
2014-Jul-16 08:33N 51°25' E 001°25'0 0.0
2014-Jul-16 07:33N 51°25' E 001°25'0 0.0
2014-Jul-16 06:33N 51°25' E 001°25'0 0.0
2014-Jul-16 05:34N 51°25' E 001°25'0 0.0
2014-Jul-16 04:33N 51°25' E 001°25'0 0.1
2014-Jul-16 03:33N 51°25' E 001°25'0 0.1
2014-Jul-16 02:33N 51°25' E 001°25'0 0.0
2014-Jul-16 01:33N 51°25' E 001°25'0 0.0
2014-Jul-16 00:33N 51°25' E 001°25'0 0.1
2014-Jul-15 23:33N 51°25' E 001°25'0 0.0
2014-Jul-15 22:33N 51°25' E 001°25'0 0.0
2014-Jul-15 21:34N 51°25' E 001°25'0 0.1
2014-Jul-15 20:33N 51°25' E 001°25'0 0.1
2014-Jul-15 19:33N 51°25' E 001°25'9 9.0
2014-Jul-15 18:33N 51°29' E 001°11'1212.4
2014-Jul-15 17:33N 51°29' E 000°52'1312.8
2014-Jul-15 16:33N 51°30' E 000°31'9 9.0
2014-Jul-15 15:33N 51°27' E 000°17'8 8.0
2014-Jul-15 14:33N 51°31' E 000°06'0 0.3
2014-Jul-15 13:22N 51°31' E 000°06'0 0.0
2014-Jul-15 12:31N 51°31' E 000°06'0 0.0
2014-Jul-15 11:28N 51°31' E 000°06'0 0.0
2014-Jul-15 10:31N 51°31' E 000°06'0 0.0
2014-Jul-15 09:19N 51°31' E 000°06'0 0.0
2014-Jul-15 08:22N 51°31' E 000°06'0 0.0
2014-Jul-15 07:22N 51°31' E 000°06'0 0.0
2014-Jul-15 06:31N 51°31' E 000°06'0 0.0
2014-Jul-15 05:31N 51°31' E 000°06'0 0.0
2014-Jul-15 04:28N 51°31' E 000°06'0 0.0
2014-Jul-15 03:28N 51°31' E 000°06'0 0.0
2014-Jul-15 02:28N 51°31' E 000°06'0 0.0
2014-Jul-15 01:28N 51°31' E 000°06'0 0.0
2014-Jul-15 00:28N 51°31' E 000°06'0 0.0
2014-Jul-14 23:22N 51°31' E 000°06'0 0.0
2014-Jul-14 22:28N 51°31' E 000°06'0 0.0
2014-Jul-14 21:22N 51°31' E 000°06'0 0.0
2014-Jul-14 20:28N 51°31' E 000°06'0 0.0
2014-Jul-14 19:28N 51°31' E 000°06'0 0.0
2014-Jul-14 17:31N 51°31' E 000°06'0 0.0
2014-Jul-14 16:28N 51°31' E 000°06'0 0.0
2014-Jul-14 15:28N 51°31' E 000°06'0 0.0
2014-Jul-14 14:28N 51°31' E 000°06'0 0.0
2014-Jul-14 13:19N 51°31' E 000°06'0 0.0
2014-Jul-14 12:31N 51°31' E 000°06'0 0.0
2014-Jul-14 11:31N 51°31' E 000°06'0 0.0
2014-Jul-14 10:31N 51°31' E 000°06'0 0.0
2014-Jul-14 09:31N 51°31' E 000°06'0 0.0
2014-Jul-14 08:28N 51°31' E 000°06'0 0.0
2014-Jul-14 07:25N 51°31' E 000°06'0 0.0
2014-Jul-14 06:28N 51°31' E 000°06'0 0.0
2014-Jul-14 05:31N 51°31' E 000°06'0 0.0
2014-Jul-14 04:31N 51°31' E 000°06'0 0.0
2014-Jul-14 03:31N 51°31' E 000°06'0 0.0
2014-Jul-14 02:28N 51°31' E 000°06'0 0.0
2014-Jul-14 01:28N 51°31' E 000°06'0 0.0
2014-Jul-14 00:31N 51°31' E 000°06'0 0.0
2014-Jul-13 23:31N 51°31' E 000°06'0 0.0
2014-Jul-13 22:31N 51°31' E 000°06'0 0.0
2014-Jul-13 21:25N 51°31' E 000°06'0 0.0
2014-Jul-13 20:28N 51°31' E 000°06'0 0.0
2014-Jul-13 19:28N 51°31' E 000°06'0 0.0
2014-Jul-13 18:28N 51°31' E 000°06'0 0.0
2014-Jul-13 17:28N 51°31' E 000°06'0 0.0
2014-Jul-13 16:31N 51°31' E 000°06'0 0.0
2014-Jul-13 15:28N 51°31' E 000°06'0 0.0
2014-Jul-13 14:22N 51°31' E 000°06'0 0.0
2014-Jul-13 13:28N 51°31' E 000°06'0 0.0
2014-Jul-13 12:31N 51°31' E 000°06'0 0.0
2014-Jul-13 11:31N 51°31' E 000°06'0 0.0
2014-Jul-13 10:31N 51°31' E 000°06'0 0.0
2014-Jul-13 09:31N 51°31' E 000°06'0 0.0
2014-Jul-13 08:31N 51°31' E 000°06'0 0.0
2014-Jul-13 07:31N 51°31' E 000°06'0 0.0
2014-Jul-13 06:31N 51°31' E 000°06'0 0.0
2014-Jul-13 05:31N 51°31' E 000°06'0 0.0
2014-Jul-13 04:28N 51°31' E 000°06'0 0.0
2014-Jul-13 03:28N 51°31' E 000°06'0 0.0
2014-Jul-13 02:31N 51°31' E 000°06'0 0.1
2014-Jul-13 01:33N 51°31' E 000°06'4 4.0
2014-Jul-13 00:33N 51°29' E 000°11'8 8.1
2014-Jul-12 23:33N 51°27' E 000°24'7 6.7
2014-Jul-12 22:33N 51°30' E 000°33'1010.4
2014-Jul-12 21:33N 51°30' E 000°50'5 5.1
2014-Jul-12 20:33N 51°30' E 000°58'0 0.1
2014-Jul-12 19:33N 51°30' E 000°58'0 0.1
2014-Jul-12 18:33N 51°30' E 000°58'0 0.0
2014-Jul-12 17:30N 51°30' E 000°58'1 1.6
2014-Jul-12 16:33N 51°30' E 000°56'6 5.8
2014-Jul-12 15:33N 51°33' E 001°04'8 8.2
2014-Jul-12 14:33N 51°38' E 001°14'7 6.6
2014-Jul-12 13:33N 51°40' E 001°04'1010.3
2014-Jul-12 12:33N 51°37' E 000°48'0 0.5
2014-Jul-12 11:33N 51°37' E 000°48'0 0.0
2014-Jul-12 10:33N 51°37' E 000°48'0 0.0
2014-Jul-12 09:33N 51°37' E 000°48'0 0.0
2014-Jul-12 08:33N 51°37' E 000°48'0 0.0
2014-Jul-12 07:30N 51°37' E 000°48'0 0.0
2014-Jul-12 06:33N 51°37' E 000°48'0 0.0
2014-Jul-12 05:34N 51°37' E 000°48'0 0.0
2014-Jul-12 04:34N 51°37' E 000°48'0 0.0
2014-Jul-12 03:33N 51°37' E 000°48'0 0.0
2014-Jul-12 02:33N 51°37' E 000°48'0 0.0
2014-Jul-12 01:33N 51°37' E 000°48'0 0.0
2014-Jul-12 00:33N 51°37' E 000°48'0 0.0
2014-Jul-11 23:33N 51°37' E 000°48'0 0.0
2014-Jul-11 22:33N 51°37' E 000°48'0 0.0
2014-Jul-11 21:33N 51°37' E 000°48'0 0.0
2014-Jul-11 20:33N 51°37' E 000°48'0 0.0
2014-Jul-11 19:33N 51°37' E 000°48'0 0.0
2014-Jul-11 18:33N 51°37' E 000°48'0 0.0
2014-Jul-11 17:33N 51°37' E 000°48'0 0.0
2014-Jul-11 16:33N 51°37' E 000°48'0 0.0
2014-Jul-11 15:33N 51°37' E 000°48'0 0.0
2014-Jul-11 14:33N 51°37' E 000°48'0 0.0
2014-Jul-11 13:33N 51°37' E 000°48'0 0.0
2014-Jul-11 12:33N 51°37' E 000°48'0 0.0
2014-Jul-11 11:33N 51°37' E 000°48'0 0.0
2014-Jul-11 10:33N 51°37' E 000°48'0 0.0
2014-Jul-11 09:33N 51°37' E 000°48'0 0.0
2014-Jul-11 08:33N 51°37' E 000°48'0 0.0
2014-Jul-11 07:33N 51°37' E 000°48'0 0.0
2014-Jul-11 06:33N 51°37' E 000°48'  

Dump ship's entire track history